Aérodrome :
LOGIN :

S'inscrire | Disclaimer

   EN    FR    IT 

 










Légende :    VFR   VFR Marginal   IFR   IFR Intensif   IFR Très Intensif
Visi : 
Plafond : 
>= 8 km
>= 3000ft
5 à 8 km
1000 à 3000 ft
1500m à 5 km
500 à 1000 ft
800 à 1500m
200 à 500 ft
< 800m
< 200 ft
Symboles :   Orages  Brouillard  Fortes neiges  Fortes précipitations  Vent > 20 kt
SIGMETs :   Divers  Orages  Givrage  Turbulence  Onde Orograph.  Cendres Volcan.






- Altitude de l'aérodrome : 3 ft
- Code IATA : DHR


EHKD - Den Helder De Kooy

DERNIER METAR :
  • 150225Z AUTO 07012KT 040V100 9999 OVC110 05/03 Q1004 BLU

METARs EXPIRÉS :
  • 150155Z AUTO 08013KT 9999 SCT130 OVC180 05/03 Q1004 BLU
  • 150125Z AUTO 09010KT 9999 OVC130 05/03 Q1004 BLU
  • 150055Z AUTO 08012KT 050V110 9999 OVC110 05/04 Q1004 BLU
  • 150025Z AUTO 09014KT 060V120 9999 OVC120 06/04 Q1005 BLU
  • 142355Z AUTO 08014KT 9999 OVC110 06/04 Q1004 BLU

TAF TAF EHKD
Valide du 15 à 02h jusqu'au 15 à 14h UTC


150141Z 1502/1514 09015KT CAVOK
BECMG 1506/1508 07017G28KT SCT007 BKN010
BECMG 1509/1512 BKN010 OVC015



MET'MAP, la Météo Aéronautique d'un coup d'oeil ! - Copyright ORBIFLY Décembre 2007 - Disclaimer

ORBIFLY MET'MAP TEAM :

Programmation & Développement : Alexandra Zaïnal
Conception & Développement : Baudouin d'Aumeries
Co-Programmation & Développement : Marc-Olivier Méhu
Soutien technique & logistique : Manuel Goepfert

Contact : metmap@orbifly.com




SOURCES & CREDITS :

   NOAA